Time;durP1;ratioP1;P1;durP2;ratioP2;P2;SDS_P1;SDS_P2;PMS_P1;PMS_P2;Temp;Humidity;BMP_temperature;BMP_pressure;BME280_temperature;BME280_humidity;BME280_pressure;Samples;Min_cycle;Max_cycle;Signal;HPM_P1;HPM_P2
2024/04/10 00:00:35;;;;;;;0.30;0.20;;;9.50;99.90;;;;;;5526438;25;20444;-59
2024/04/10 00:03:05;;;;;;;0.30;0.20;;;9.60;99.90;;;;;;5527910;25;20437;-61
2024/04/10 00:05:34;;;;;;;0.50;0.20;;;9.50;99.90;;;;;;5527443;25;20460;-61
2024/04/10 00:08:00;;;;;;;0.40;0.20;;;9.50;99.90;;;;;;5529147;25;20456;-61
2024/04/10 00:10:28;;;;;;;0.60;0.20;;;9.50;99.90;;;;;;5494121;25;20477;-61
2024/04/10 00:12:54;;;;;;;0.40;0.20;;;9.50;99.90;;;;;;5518952;25;20513;-61
2024/04/10 00:15:23;;;;;;;0.50;0.20;;;9.50;99.90;;;;;;5527691;25;20440;-60
2024/04/10 00:17:52;;;;;;;0.30;0.20;;;9.40;99.90;;;;;;5528893;26;20538;-62
2024/04/10 00:20:21;;;;;;;0.30;0.20;;;9.40;99.90;;;;;;5528664;25;20886;-61
2024/04/10 00:22:47;;;;;;;2.60;0.20;;;9.40;99.90;;;;;;5527775;25;20448;-60
2024/04/10 00:25:16;;;;;;;0.40;0.20;;;9.40;99.90;;;;;;5523675;25;20725;-61
2024/04/10 00:27:42;;;;;;;0.30;0.20;;;9.50;99.90;;;;;;5510925;25;20454;-61
2024/04/10 00:30:11;;;;;;;0.30;0.10;;;9.40;99.90;;;;;;5511872;25;20521;-61
2024/04/10 00:32:37;;;;;;;0.40;0.10;;;9.50;99.90;;;;;;5520757;25;20611;-61
2024/04/10 00:35:09;;;;;;;0.40;0.20;;;9.60;99.90;;;;;;5496054;26;21066;-60
2024/04/10 00:37:35;;;;;;;0.30;0.13;;;9.60;90.30;;;;;;5500406;25;20470;-61
2024/04/10 00:40:04;;;;;;;0.53;0.20;;;9.60;99.90;;;;;;5494285;26;20721;-61
2024/04/10 00:42:30;;;;;;;0.40;0.17;;;9.50;99.90;;;;;;5491014;26;20481;-61
2024/04/10 00:44:59;;;;;;;0.33;0.17;;;9.50;99.90;;;;;;5492709;25;20790;-60
2024/04/10 00:47:25;;;;;;;0.70;0.20;;;9.40;99.90;;;;;;5489882;26;20458;-60
2024/04/10 00:49:54;;;;;;;0.70;0.20;;;9.30;99.90;;;;;;5490851;26;21005;-61
2024/04/10 00:52:23;;;;;;;0.50;0.20;;;9.30;99.90;;;;;;5488418;26;20496;-61
2024/04/10 00:54:52;;;;;;;0.30;0.10;;;9.20;99.90;;;;;;5490099;26;20494;-60
2024/04/10 00:57:18;;;;;;;0.63;0.30;;;9.20;99.90;;;;;;5518107;25;20452;-61
2024/04/10 00:59:47;;;;;;;0.43;0.20;;;9.20;99.90;;;;;;5526692;25;20887;-61
2024/04/10 01:02:13;;;;;;;0.30;0.10;;;9.20;1.00;;;;;;5527459;26;20863;-60
2024/04/10 01:04:41;;;;;;;0.30;0.17;;;9.20;99.90;;;;;;5527725;25;20491;-62
2024/04/10 01:07:08;;;;;;;2.73;0.20;;;9.20;99.90;;;;;;5527088;25;20513;-61
2024/04/10 01:09:39;;;;;;;0.40;0.20;;;9.20;99.90;;;;;;5526267;25;20437;-61
2024/04/10 01:12:06;;;;;;;0.40;0.20;;;9.20;99.90;;;;;;5523627;25;20464;-61
2024/04/10 01:14:35;;;;;;;0.40;0.20;;;9.20;1.00;;;;;;5500328;25;20533;-61
2024/04/10 01:17:01;;;;;;;0.50;0.20;;;9.10;1.00;;;;;;5490961;26;20450;-61
2024/04/10 01:19:30;;;;;;;0.40;0.20;;;9.10;1.00;;;;;;5490930;26;20565;-60
2024/04/10 01:21:56;;;;;;;0.30;0.10;;;9.10;1.00;;;;;;5503697;25;20461;-61
2024/04/10 01:24:27;;;;;;;0.40;0.20;;;9.10;1.00;;;;;;5499887;25;20450;-61
2024/04/10 01:26:53;;;;;;;0.40;0.20;;;9.00;1.00;;;;;;5489792;26;20501;-61
2024/04/10 01:29:22;;;;;;;0.70;0.20;;;9.00;1.00;;;;;;5490090;26;20462;-60
2024/04/10 01:31:48;;;;;;;0.30;0.10;;;8.90;1.00;;;;;;5489115;26;20461;-60
2024/04/10 01:34:16;;;;;;;0.43;0.30;;;8.80;1.00;;;;;;5492600;26;20468;-60
2024/04/10 01:36:42;;;;;;;0.50;0.20;;;8.80;1.00;;;;;;5489641;26;20454;-60
2024/04/10 01:39:11;;;;;;;0.40;0.20;;;8.70;1.00;;;;;;5521048;25;20502;-60
2024/04/10 01:41:40;;;;;;;0.30;0.13;;;8.70;1.00;;;;;;5489747;26;20975;-61
2024/04/10 01:44:09;;;;;;;0.40;0.20;;;8.70;1.00;;;;;;5492504;26;20508;-60
2024/04/10 01:46:35;;;;;;;0.40;0.20;;;8.70;1.00;;;;;;5490209;26;20872;-60
2024/04/10 01:49:04;;;;;;;1.37;0.30;;;8.70;1.00;;;;;;5496619;26;20478;-60
2024/04/10 01:51:30;;;;;;;0.40;0.20;;;8.70;1.00;;;;;;5491275;26;20506;-59
2024/04/10 01:53:59;;;;;;;2.50;0.30;;;8.70;1.00;;;;;;5500734;25;20464;-60
2024/04/10 01:56:25;;;;;;;0.33;0.30;;;8.70;1.00;;;;;;5499736;25;20512;-60
2024/04/10 01:58:56;;;;;;;0.30;0.17;;;8.60;1.00;;;;;;5490400;26;20517;-60
2024/04/10 02:01:22;;;;;;;0.40;0.20;;;8.50;1.00;;;;;;5490666;26;20466;-60
2024/04/10 02:03:51;;;;;;;0.50;0.20;;;8.50;1.00;;;;;;5489626;26;20441;-60
2024/04/10 02:06:17;;;;;;;0.90;0.20;;;8.60;1.00;;;;;;5492832;26;20502;-60
2024/04/10 02:08:46;;;;;;;0.40;0.20;;;8.60;1.00;;;;;;5501347;26;20533;-60
2024/04/10 02:11:25;;;;;;;0.30;0.13;;;8.60;1.00;;;;;;5521185;25;20472;-61
2024/04/10 02:13:56;;;;;;;0.40;0.20;;;8.50;1.00;;;;;;5517979;25;20911;-61
2024/04/10 02:16:23;;;;;;;0.53;0.20;;;8.60;1.00;;;;;;5507903;26;20607;-61
2024/04/10 02:18:52;;;;;;;0.50;0.20;;;8.50;1.00;;;;;;5523439;25;20453;-60
2024/04/10 02:21:18;;;;;;;2.00;0.40;;;8.50;1.00;;;;;;5526635;25;20448;-61
2024/04/10 02:26:21;;;;;;;0.87;0.27;;;8.50;1.00;;;;;;5605075;25;20669;-61
2024/04/10 02:28:47;;;;;;;0.50;0.20;;;8.60;1.00;;;;;;5584009;25;20446;-61
2024/04/10 02:31:16;;;;;;;0.50;0.20;;;8.60;1.00;;;;;;5584272;25;20564;-61
2024/04/10 02:33:42;;;;;;;0.50;0.20;;;8.60;1.00;;;;;;5583278;25;20793;-61
2024/04/10 02:36:11;;;;;;;0.50;0.20;;;8.70;1.00;;;;;;5581904;25;20543;-61
2024/04/10 02:38:37;;;;;;;0.30;0.20;;;8.70;1.00;;;;;;5583363;25;20446;-60
2024/04/10 02:41:07;;;;;;;2.63;0.20;;;8.80;1.00;;;;;;5581826;25;20474;-60
2024/04/10 02:43:36;;;;;;;0.40;0.10;;;8.80;1.00;;;;;;5576676;25;20901;-61
2024/04/10 02:46:06;;;;;;;1.03;0.20;;;8.80;1.00;;;;;;5561353;25;20462;-60
2024/04/10 02:48:32;;;;;;;0.40;0.20;;;8.80;1.00;;;;;;5579518;25;21006;-60
2024/04/10 02:51:01;;;;;;;1.60;0.20;;;9.00;1.00;;;;;;5583078;25;20439;-61
2024/04/10 02:53:27;;;;;;;0.50;0.20;;;9.10;1.00;;;;;;5564540;25;20513;-60
2024/04/10 02:55:57;;;;;;;3.03;0.30;;;9.10;99.90;;;;;;5581822;25;21011;-61
2024/04/10 02:58:23;;;;;;;0.47;0.20;;;9.20;99.90;;;;;;5583401;25;20450;-60
2024/04/10 03:00:56;;;;;;;0.40;0.20;;;9.10;99.90;;;;;;5581713;25;20522;-61
2024/04/10 03:03:24;;;;;;;2.20;0.20;;;9.10;99.90;;;;;;5583707;25;20525;-61
2024/04/10 03:06:03;;;;;;;0.30;0.20;;;9.00;99.90;;;;;;5582539;25;20499;-60
2024/04/10 03:08:29;;;;;;;0.30;0.10;;;9.10;99.90;;;;;;5582911;25;20711;-61
2024/04/10 03:10:57;;;;;;;0.30;0.10;;;9.20;1.00;;;;;;5583673;25;20466;-61
2024/04/10 03:13:23;;;;;;;0.50;0.20;;;9.30;1.00;;;;;;5582341;25;20458;-61
2024/04/10 03:15:55;;;;;;;1.03;0.20;;;9.20;1.00;;;;;;5583087;25;21040;-61
2024/04/10 03:18:21;;;;;;;0.30;0.20;;;9.30;1.00;;;;;;5582499;25;20537;-60
2024/04/10 03:20:50;;;;;;;0.33;0.10;;;9.30;99.90;;;;;;5582525;25;20892;-60
2024/04/10 03:23:16;;;;;;;1.03;0.20;;;9.20;1.00;;;;;;5582496;25;20446;-59
2024/04/10 03:25:45;;;;;;;0.40;0.10;;;9.00;99.90;;;;;;5582342;25;20485;-60
2024/04/10 03:28:11;;;;;;;0.30;0.10;;;9.00;99.90;;;;;;5583245;25;20450;-60
2024/04/10 03:30:40;;;;;;;0.40;0.20;;;8.90;99.90;;;;;;5582532;25;20458;-61
2024/04/10 03:33:09;;;;;;;0.50;0.20;;;8.90;99.90;;;;;;5582639;25;20455;-60
2024/04/10 03:35:38;;;;;;;0.77;0.20;;;9.00;99.90;;;;;;5578861;25;20458;-59
2024/04/10 03:38:05;;;;;;;0.30;0.10;;;8.90;1.00;;;;;;5564099;25;20455;-59
2024/04/10 03:40:34;;;;;;;0.40;0.10;;;8.90;25.70;;;;;;5563718;25;20458;-60
2024/04/10 03:43:03;;;;;;;2.73;0.20;;;9.00;1.00;;;;;;5562657;25;20491;-60
2024/04/10 03:45:33;;;;;;;0.40;0.20;;;8.90;85.90;;;;;;5555040;25;20571;-60
2024/04/10 03:48:02;;;;;;;0.40;0.20;;;9.00;1.00;;;;;;5562770;25;20880;-59
2024/04/10 03:50:33;;;;;;;3.73;0.30;;;9.10;1.00;;;;;;5563428;25;20890;-59
2024/04/10 03:53:02;;;;;;;0.30;0.10;;;9.20;99.90;;;;;;5563254;25;20519;-60
2024/04/10 03:55:28;;;;;;;1.57;0.20;;;9.30;1.00;;;;;;5547417;25;20724;-60
2024/04/10 03:57:56;;;;;;;0.70;0.17;;;9.20;1.00;;;;;;5564658;25;20561;-61
2024/04/10 04:00:22;;;;;;;1.27;0.20;;;9.30;1.00;;;;;;5566007;25;20872;-60
2024/04/10 04:02:51;;;;;;;0.40;0.20;;;9.20;1.00;;;;;;5566188;25;20455;-60
2024/04/10 04:05:17;;;;;;;0.40;0.20;;;9.30;1.00;;;;;;5566251;25;20459;-62
2024/04/10 04:07:48;;;;;;;0.30;0.10;;;9.20;1.00;;;;;;5564653;25;20740;-60
2024/04/10 04:10:14;;;;;;;0.47;0.30;;;9.10;1.00;;;;;;5563079;25;20523;-61
2024/04/10 04:12:43;;;;;;;1.77;0.10;;;9.10;1.00;;;;;;5559570;25;20883;-59
2024/04/10 04:15:09;;;;;;;0.30;0.13;;;9.00;1.00;;;;;;5539518;25;20674;-60
2024/04/10 04:17:38;;;;;;;0.70;0.20;;;8.90;99.90;;;;;;5558604;25;20844;-60
2024/04/10 04:20:07;;;;;;;0.30;0.13;;;8.90;1.00;;;;;;5560994;25;20451;-60
2024/04/10 04:22:36;;;;;;;0.30;0.10;;;8.90;1.00;;;;;;5560364;25;20463;-60
2024/04/10 04:25:05;;;;;;;0.37;0.10;;;8.90;1.00;;;;;;5559691;25;20492;-61
2024/04/10 04:27:34;;;;;;;0.50;0.20;;;8.90;1.00;;;;;;5563872;25;20615;-61
2024/04/10 04:30:01;;;;;;;0.40;0.10;;;8.90;1.00;;;;;;5560429;25;20443;-61
2024/04/10 04:32:31;;;;;;;0.83;0.20;;;8.90;1.00;;;;;;5560121;25;20837;-61
2024/04/10 04:34:57;;;;;;;0.50;0.20;;;8.90;1.00;;;;;;5561002;25;20499;-62
2024/04/10 04:37:27;;;;;;;0.60;0.20;;;8.80;1.00;;;;;;5560647;25;20522;-61
2024/04/10 04:39:56;;;;;;;0.70;0.30;;;8.70;99.90;;;;;;5558576;25;20530;-60
2024/04/10 04:42:24;;;;;;;0.30;0.10;;;8.70;1.00;;;;;;5559662;25;20916;-60
2024/04/10 04:44:53;;;;;;;0.50;0.20;;;8.60;1.00;;;;;;5544643;25;20564;-60
2024/04/10 04:47:19;;;;;;;0.50;0.20;;;8.60;1.00;;;;;;5546989;25;20445;-60
2024/04/10 04:49:48;;;;;;;0.50;0.10;;;8.60;1.00;;;;;;5523766;25;20463;-60
2024/04/10 04:52:14;;;;;;;1.10;0.27;;;8.60;1.00;;;;;;5544922;25;20523;-60
2024/04/10 04:54:43;;;;;;;0.30;0.10;;;8.60;1.00;;;;;;5518184;25;20951;-61
2024/04/10 04:57:12;;;;;;;0.50;0.20;;;8.70;1.00;;;;;;5558949;25;20451;-61
2024/04/10 04:59:43;;;;;;;0.30;0.10;;;8.80;99.90;;;;;;5559394;25;20479;-61
2024/04/10 05:02:09;;;;;;;1.03;0.20;;;8.80;53.80;;;;;;5556762;25;20703;-61
2024/04/10 05:07:23;;;;;;;1.07;0.23;;;9.20;1.00;;;;;;5507081;26;20520;-60
2024/04/10 05:09:52;;;;;;;0.40;0.20;;;9.20;1.00;;;;;;5520675;25;20464;-60
2024/04/10 05:12:18;;;;;;;0.30;0.10;;;9.10;1.00;;;;;;5506921;25;20469;-60
2024/04/10 05:14:53;;;;;;;0.90;0.20;;;9.10;15.20;;;;;;5532276;25;21214;-60
2024/04/10 05:17:19;;;;;;;0.40;0.20;;;9.00;1.00;;;;;;5492386;25;20506;-60
2024/04/10 05:19:48;;;;;;;2.93;0.30;;;9.00;1.00;;;;;;5502339;25;20454;-60
2024/04/10 05:22:14;;;;;;;6.07;0.20;;;8.90;1.00;;;;;;5522522;25;21151;-61
2024/04/10 05:24:42;;;;;;;1.00;0.20;;;9.00;99.90;;;;;;5542350;25;20561;-60
2024/04/10 05:27:20;;;;;;;0.40;0.20;;;8.90;1.00;;;;;;5544684;25;20802;-60
2024/04/10 05:29:55;;;;;;;3.23;0.30;;;8.90;99.90;;;;;;5518007;25;20797;-60
2024/04/10 05:32:21;;;;;;;0.47;0.17;;;9.00;1.00;;;;;;5520442;25;20451;-61
2024/04/10 05:34:50;;;;;;;1.33;0.20;;;9.10;99.90;;;;;;5537743;25;20463;-60
2024/04/10 05:37:17;;;;;;;0.73;0.20;;;9.30;99.90;;;;;;5558054;25;20459;-59
2024/04/10 05:39:46;;;;;;;0.50;0.20;;;9.30;99.90;;;;;;5527865;25;20572;-60
2024/04/10 05:42:12;;;;;;;0.30;0.20;;;9.60;10.40;;;;;;5559778;25;20724;-60
2024/04/10 05:44:40;;;;;;;0.37;0.20;;;9.70;17.30;;;;;;5536575;25;20496;-59
2024/04/10 05:47:09;;;;;;;0.63;0.20;;;9.90;54.00;;;;;;5520076;25;20495;-62
2024/04/10 05:49:38;;;;;;;2.50;0.20;;;9.80;1.00;;;;;;5522060;25;21015;-61
2024/04/10 05:52:04;;;;;;;0.50;0.30;;;9.90;1.00;;;;;;5533594;25;20532;-60
2024/04/10 05:54:33;;;;;;;0.60;0.30;;;10.00;1.00;;;;;;5555125;25;20514;-61
2024/04/10 05:57:00;;;;;;;1.27;0.20;;;9.90;99.90;;;;;;5530586;25;20780;-61
2024/04/10 05:59:29;;;;;;;0.47;0.10;;;9.60;99.90;;;;;;5556507;25;20443;-61
2024/04/10 06:01:55;;;;;;;1.47;0.20;;;9.50;1.00;;;;;;5544429;25;20898;-57
2024/04/10 06:04:26;;;;;;;0.50;0.20;;;9.40;1.00;;;;;;5523323;25;20460;-57
2024/04/10 06:06:52;;;;;;;0.80;0.30;;;9.10;99.90;;;;;;5521980;25;20440;-56
2024/04/10 06:09:21;;;;;;;5.43;0.30;;;9.20;1.00;;;;;;5523343;25;20917;-57
2024/04/10 06:11:47;;;;;;;0.33;0.17;;;9.20;1.00;;;;;;5525328;25;20493;-56
2024/04/10 06:14:15;;;;;;;0.40;0.20;;;9.30;99.90;;;;;;5517171;25;20574;-57
2024/04/10 06:16:41;;;;;;;0.80;0.20;;;9.20;1.00;;;;;;5505623;25;20513;-57
2024/04/10 06:19:10;;;;;;;1.23;0.23;;;9.60;99.90;;;;;;5512782;25;20474;-56
2024/04/10 06:21:39;;;;;;;0.97;0.17;;;9.60;99.90;;;;;;5522122;25;21223;-58
2024/04/10 06:24:10;;;;;;;0.30;0.20;;;9.40;99.90;;;;;;5517190;25;20499;-57
2024/04/10 06:26:36;;;;;;;0.40;0.20;;;9.30;1.00;;;;;;5520769;25;20452;-58
2024/04/10 06:29:05;;;;;;;0.47;0.20;;;9.50;99.90;;;;;;5523292;25;20536;-55
2024/04/10 06:31:31;;;;;;;5.80;0.20;;;9.60;1.00;;;;;;5503078;25;20524;-58
2024/04/10 06:33:59;;;;;;;1.00;0.20;;;9.60;99.90;;;;;;5488707;25;20469;-57
2024/04/10 06:36:25;;;;;;;3.20;0.20;;;9.50;99.90;;;;;;5501410;25;20500;-58
2024/04/10 06:38:57;;;;;;;3.10;0.20;;;9.50;1.00;;;;;;5513665;25;20505;-57
2024/04/10 06:41:23;;;;;;;1.80;0.30;;;9.60;1.00;;;;;;5520966;25;20458;-58
2024/04/10 06:43:51;;;;;;;1.03;0.20;;;10.00;99.90;;;;;;5520253;25;21013;-58
2024/04/10 06:46:17;;;;;;;0.50;0.20;;;9.80;1.00;;;;;;5533180;25;20554;-57
2024/04/10 06:48:48;;;;;;;1.70;0.20;;;9.90;55.10;;;;;;5496884;25;21237;-59
2024/04/10 06:51:14;;;;;;;0.67;0.30;;;10.30;1.00;;;;;;5527591;25;20626;-56
2024/04/10 06:53:43;;;;;;;0.50;0.20;;;10.80;1.00;;;;;;5489852;25;20462;-57
2024/04/10 06:56:12;;;;;;;0.97;0.20;;;10.70;1.00;;;;;;5497343;25;20519;-55
2024/04/10 06:58:40;;;;;;;0.73;0.30;;;10.60;1.00;;;;;;5498388;26;20570;-54
2024/04/10 07:01:07;;;;;;;1.67;0.20;;;10.40;1.00;;;;;;5517381;25;20520;-57
2024/04/10 07:03:37;;;;;;;1.10;0.30;;;10.30;99.90;;;;;;5488009;25;20516;-56
2024/04/10 07:06:05;;;;;;;1.60;0.30;;;10.00;57.80;;;;;;5485175;26;20433;-57
2024/04/10 07:08:35;;;;;;;0.30;0.10;;;9.80;1.00;;;;;;5510789;26;20460;-61
2024/04/10 07:11:01;;;;;;;0.60;0.40;;;10.00;1.00;;;;;;5533815;25;20520;-61
2024/04/10 07:13:33;;;;;;;2.63;0.30;;;10.10;1.00;;;;;;5534886;25;20521;-61
2024/04/10 07:15:59;;;;;;;0.30;0.20;;;10.30;99.90;;;;;;5518354;25;20527;-61
2024/04/10 07:18:30;;;;;;;0.47;0.30;;;10.70;99.90;;;;;;5525873;25;20461;-61
2024/04/10 07:21:00;;;;;;;1.70;0.20;;;10.90;1.00;;;;;;5512700;26;20517;-61
2024/04/10 07:23:29;;;;;;;1.73;0.20;;;11.00;1.00;;;;;;5508027;25;21199;-61
2024/04/10 07:26:05;;;;;;;0.77;0.20;;;11.20;1.00;;;;;;5505182;25;20467;-61
2024/04/10 07:28:36;;;;;;;0.53;0.20;;;11.20;1.00;;;;;;5530981;25;20578;-60
2024/04/10 07:31:04;;;;;;;2.57;0.30;;;11.20;1.00;;;;;;5522533;25;20464;-61
2024/04/10 07:33:33;;;;;;;0.60;0.20;;;11.40;1.00;;;;;;5520900;25;20472;-61
2024/04/10 07:36:07;;;;;;;1.80;0.30;;;11.30;99.90;;;;;;5561429;25;20499;-60
2024/04/10 07:38:35;;;;;;;0.87;0.20;;;11.50;1.00;;;;;;5563089;25;20598;-61
2024/04/10 07:41:01;;;;;;;0.40;0.20;;;11.20;99.90;;;;;;5527213;25;20469;-61
2024/04/10 07:43:30;;;;;;;2.87;0.20;;;11.40;99.90;;;;;;5522496;25;20539;-61
2024/04/10 07:46:05;;;;;;;2.50;0.30;;;11.40;99.90;;;;;;5499662;25;20399;-61
2024/04/10 07:48:34;;;;;;;0.93;0.20;;;10.90;99.90;;;;;;5544307;25;20238;-61
2024/04/10 07:51:02;;;;;;;0.40;0.20;;;10.80;1.00;;;;;;5499905;25;20520;-61
2024/04/10 07:53:31;;;;;;;1.47;0.20;;;11.00;99.90;;;;;;5489763;25;20525;-62
2024/04/10 07:55:57;;;;;;;0.80;0.20;;;10.80;99.90;;;;;;5518350;25;20990;-61
2024/04/10 07:58:26;;;;;;;0.50;0.23;;;11.10;1.00;;;;;;5512222;25;20480;-60
2024/04/10 08:00:56;;;;;;;0.50;0.20;;;11.40;99.90;;;;;;5525404;25;20966;-60
2024/04/10 08:03:29;;;;;;;2.63;0.20;;;11.60;99.90;;;;;;5504396;25;20465;-59
2024/04/10 08:05:57;;;;;;;1.87;0.20;;;11.20;99.90;;;;;;5491162;26;20859;-60
2024/04/10 08:08:27;;;;;;;0.40;0.10;;;11.00;99.90;;;;;;5487324;26;20531;-60
2024/04/10 08:10:58;;;;;;;1.07;0.30;;;10.90;99.90;;;;;;5487435;26;20454;-60
2024/04/10 08:13:27;;;;;;;1.73;0.20;;;11.10;99.90;;;;;;5494883;26;20908;-61
2024/04/10 08:15:58;;;;;;;1.57;0.30;;;11.40;99.90;;;;;;5493006;26;20850;-60
2024/04/10 08:18:30;;;;;;;1.20;0.17;;;11.50;99.90;;;;;;5502920;26;20530;-60
2024/04/10 08:21:00;;;;;;;0.70;0.30;;;11.40;99.90;;;;;;5506984;25;20522;-62
2024/04/10 08:23:30;;;;;;;0.30;0.20;;;11.40;99.90;;;;;;5523086;25;20563;-60
2024/04/10 08:25:56;;;;;;;2.20;0.30;;;11.40;99.90;;;;;;5511708;25;20469;-61
2024/04/10 08:28:25;;;;;;;0.60;0.23;;;11.40;99.90;;;;;;5506949;25;20473;-61
2024/04/10 08:30:52;;;;;;;1.27;0.20;;;11.40;99.90;;;;;;5503515;25;20481;-62
2024/04/10 08:33:21;;;;;;;0.90;0.20;;;11.30;99.90;;;;;;5524155;25;20620;-61
2024/04/10 08:35:55;;;;;;;1.23;0.20;;;11.30;99.90;;;;;;5536404;25;20652;-60
2024/04/10 08:38:24;;;;;;;1.37;0.30;;;11.40;99.90;;;;;;5487954;26;20574;-60
2024/04/10 08:40:52;;;;;;;2.13;0.23;;;11.50;99.90;;;;;;5510547;26;20991;-60
2024/04/10 08:43:22;;;;;;;5.07;0.73;;;11.50;99.90;;;;;;5490016;25;20474;-60
2024/04/10 08:45:49;;;;;;;0.67;0.20;;;11.50;99.90;;;;;;5490930;25;20476;-60
2024/04/10 08:48:19;;;;;;;3.00;0.30;;;11.70;99.90;;;;;;5501777;26;20540;-62
2024/04/10 08:50:46;;;;;;;1.20;0.37;;;11.70;99.90;;;;;;5493884;26;20480;-59
2024/04/10 08:53:20;;;;;;;0.60;0.20;;;11.60;99.90;;;;;;5502320;26;20468;-61
2024/04/10 08:55:47;;;;;;;0.80;0.40;;;11.60;99.90;;;;;;5486796;25;20563;-61
2024/04/10 08:58:16;;;;;;;0.40;0.20;;;11.60;99.90;;;;;;5500930;25;20588;-60
2024/04/10 09:00:43;;;;;;;1.43;0.40;;;11.70;99.90;;;;;;5496228;26;20522;-61
2024/04/10 09:03:14;;;;;;;0.90;0.30;;;11.90;96.20;;;;;;5497048;26;20460;-60
2024/04/10 09:05:41;;;;;;;0.50;0.30;;;12.40;64.00;;;;;;5489469;26;20497;-58
2024/04/10 09:08:10;;;;;;;0.57;0.30;;;12.70;1.00;;;;;;5500369;25;20566;-60
2024/04/10 09:10:39;;;;;;;1.03;0.30;;;12.80;1.00;;;;;;5486195;26;20462;-62
2024/04/10 09:13:10;;;;;;;4.27;0.40;;;12.90;1.00;;;;;;5487263;26;20709;-61
2024/04/10 09:15:37;;;;;;;0.70;0.13;;;12.60;1.00;;;;;;5509049;25;20460;-60
2024/04/10 09:18:06;;;;;;;0.47;0.30;;;12.40;1.00;;;;;;5489881;25;20462;-60
2024/04/10 09:20:32;;;;;;;0.83;0.30;;;12.20;1.00;;;;;;5512979;26;20457;-61
2024/04/10 09:23:06;;;;;;;0.70;0.20;;;12.30;1.00;;;;;;5510418;25;20486;-60
2024/04/10 09:25:32;;;;;;;1.80;0.30;;;12.40;1.00;;;;;;5484289;26;20477;-60
2024/04/10 09:28:06;;;;;;;2.50;0.30;;;12.40;1.00;;;;;;5495264;26;20458;-60
2024/04/10 09:30:33;;;;;;;1.00;0.40;;;12.40;1.00;;;;;;5495297;25;21011;-60
2024/04/10 09:33:02;;;;;;;0.60;0.30;;;12.70;1.00;;;;;;5512352;25;21567;-61
2024/04/10 09:35:29;;;;;;;0.47;0.30;;;12.90;1.00;;;;;;5482150;25;20470;-61
2024/04/10 09:37:59;;;;;;;0.90;0.30;;;13.20;1.00;;;;;;5505275;26;20477;-61
2024/04/10 09:40:27;;;;;;;1.43;0.23;;;13.40;1.00;;;;;;5505454;26;20549;-60
2024/04/10 09:43:13;;;;;;;0.83;0.30;;;13.50;1.00;;;;;;5501783;26;20472;-61
2024/04/10 09:45:44;;;;;;;3.23;0.40;;;13.40;1.00;;;;;;5495491;25;21083;-60
2024/04/10 09:48:13;;;;;;;0.80;0.30;;;13.50;1.00;;;;;;5496371;25;20572;-60
2024/04/10 09:50:41;;;;;;;1.83;0.40;;;13.20;1.00;;;;;;5487741;26;20461;-60
2024/04/10 09:53:10;;;;;;;0.60;0.30;;;13.30;1.00;;;;;;5488475;26;21192;-63
2024/04/10 09:55:38;;;;;;;0.83;0.40;;;13.10;1.00;;;;;;5495513;26;20465;-61
2024/04/10 09:58:13;;;;;;;4.70;0.30;;;13.30;1.00;;;;;;5487972;26;20510;-59
2024/04/10 10:00:39;;;;;;;0.80;0.30;;;13.60;1.00;;;;;;5481503;26;20637;-61
2024/04/10 10:03:09;;;;;;;2.30;0.40;;;13.90;1.00;;;;;;5494055;26;20530;-60
2024/04/10 10:05:35;;;;;;;3.27;0.30;;;13.90;1.00;;;;;;5504699;25;20458;-60
2024/04/10 10:08:08;;;;;;;1.17;0.40;;;14.20;1.00;;;;;;5518836;25;20476;-60
2024/04/10 10:10:45;;;;;;;0.70;0.27;;;14.70;1.00;;;;;;5481362;25;20540;-60
2024/04/10 10:13:16;;;;;;;0.77;0.30;;;15.00;1.00;;;;;;5488837;26;20577;-59
2024/04/10 10:15:42;;;;;;;0.50;0.30;;;14.90;1.00;;;;;;5480777;25;20465;-59
2024/04/10 10:18:11;;;;;;;0.50;0.30;;;14.70;1.00;;;;;;5490595;25;20557;-59
2024/04/10 10:20:38;;;;;;;1.00;0.30;;;14.90;1.00;;;;;;5508287;25;20454;-60
2024/04/10 10:23:07;;;;;;;1.43;0.30;;;14.60;1.00;;;;;;5483887;26;20464;-59
2024/04/10 10:25:34;;;;;;;1.27;0.30;;;14.40;1.00;;;;;;5486239;26;20477;-59
2024/04/10 10:28:10;;;;;;;0.40;0.20;;;14.20;1.00;;;;;;5500814;26;21235;-60
2024/04/10 10:30:39;;;;;;;2.00;0.30;;;14.00;1.00;;;;;;5511323;26;20535;-60
2024/04/10 10:33:09;;;;;;;0.57;0.30;;;13.90;1.00;;;;;;5483835;26;20926;-60
2024/04/10 10:35:35;;;;;;;0.57;0.30;;;13.60;1.00;;;;;;5483760;25;20452;-60
2024/04/10 10:38:06;;;;;;;0.40;0.20;;;13.40;1.00;;;;;;5508485;26;20560;-60
2024/04/10 10:40:33;;;;;;;0.77;0.33;;;13.50;1.00;;;;;;5485770;26;20491;-59
2024/04/10 10:43:07;;;;;;;2.10;0.30;;;13.30;1.00;;;;;;5483600;26;21039;-60
2024/04/10 10:45:34;;;;;;;0.60;0.40;;;13.40;1.00;;;;;;5489298;26;20582;-60
2024/04/10 10:48:07;;;;;;;0.50;0.30;;;13.70;1.00;;;;;;5505207;25;20861;-60
2024/04/10 10:50:34;;;;;;;1.23;0.40;;;14.00;1.00;;;;;;5506084;25;20474;-59
2024/04/10 10:53:04;;;;;;;1.33;0.30;;;14.30;1.00;;;;;;5502451;25;21005;-59
2024/04/10 10:55:30;;;;;;;1.97;0.30;;;14.70;1.00;;;;;;5498717;26;21161;-60
2024/04/10 10:58:06;;;;;;;0.43;0.30;;;14.70;1.00;;;;;;5508845;25;20524;-59
2024/04/10 11:00:34;;;;;;;0.50;0.30;;;14.70;1.00;;;;;;5485519;26;20466;-59
2024/04/10 11:03:16;;;;;;;0.50;0.30;;;15.00;1.00;;;;;;5489411;25;20535;-64
2024/04/10 11:05:43;;;;;;;0.50;0.30;;;15.10;1.00;;;;;;5518643;26;21025;-64
2024/04/10 11:08:11;;;;;;;0.50;0.30;;;15.00;1.00;;;;;;5497200;25;20460;-62
2024/04/10 11:10:38;;;;;;;7.67;0.30;;;15.40;1.00;;;;;;5503605;26;20547;-64
2024/04/10 11:13:09;;;;;;;0.47;0.20;;;14.90;1.00;;;;;;5488529;26;20533;-65
2024/04/10 11:15:39;;;;;;;0.77;0.20;;;14.60;1.00;;;;;;5497115;26;20915;-65
2024/04/10 11:18:11;;;;;;;0.97;0.30;;;14.80;1.00;;;;;;5526585;26;21178;-64
2024/04/10 11:20:37;;;;;;;0.77;0.40;;;15.30;1.00;;;;;;5497252;25;20846;-64
2024/04/10 11:23:06;;;;;;;0.77;0.30;;;15.90;1.00;;;;;;5489491;25;20976;-65
2024/04/10 11:25:34;;;;;;;0.57;0.20;;;16.10;1.00;;;;;;5487725;26;20599;-64
2024/04/10 11:28:03;;;;;;;1.90;0.30;;;16.10;1.00;;;;;;5505241;26;20456;-66
2024/04/10 11:30:31;;;;;;;0.37;0.17;;;16.30;1.00;;;;;;5503774;25;20517;-65
2024/04/10 11:33:00;;;;;;;1.57;0.23;;;16.60;1.00;;;;;;5507509;25;20571;-65
2024/04/10 11:35:29;;;;;;;0.50;0.20;;;16.10;1.00;;;;;;5493152;26;20519;-64
2024/04/10 11:37:58;;;;;;;2.73;0.37;;;16.60;1.00;;;;;;5512858;26;20471;-63
2024/04/10 11:40:24;;;;;;;0.60;0.20;;;17.00;1.00;;;;;;5525311;25;20514;-65
2024/04/10 11:42:54;;;;;;;4.10;0.30;;;17.40;1.00;;;;;;5504801;25;20485;-65
2024/04/10 11:45:20;;;;;;;0.50;0.20;;;17.30;1.00;;;;;;5491121;26;20544;-63
2024/04/10 11:47:49;;;;;;;0.60;0.30;;;17.30;1.00;;;;;;5489192;25;20470;-65
2024/04/10 11:50:15;;;;;;;3.27;0.30;;;17.30;1.00;;;;;;5491765;26;20518;-63
2024/04/10 11:52:47;;;;;;;0.60;0.20;;;17.50;1.00;;;;;;5494313;26;20522;-64
2024/04/10 11:55:15;;;;;;;0.40;0.20;;;17.40;1.00;;;;;;5489586;25;20485;-65
2024/04/10 11:57:45;;;;;;;3.30;0.30;;;17.60;1.00;;;;;;5514913;25;20465;-67
2024/04/10 12:00:12;;;;;;;0.70;0.20;;;17.80;1.00;;;;;;5524151;25;21642;-67
2024/04/10 12:02:42;;;;;;;1.17;0.20;;;17.90;1.00;;;;;;5498998;25;20461;-63
2024/04/10 12:05:08;;;;;;;1.20;0.20;;;18.20;1.00;;;;;;5518171;26;20497;-65
2024/04/10 12:07:38;;;;;;;0.43;0.20;;;18.30;1.00;;;;;;5489137;26;20997;-66
2024/04/10 12:10:08;;;;;;;0.30;0.20;;;18.60;1.00;;;;;;5492483;26;20595;-66
2024/04/10 12:12:37;;;;;;;0.70;0.20;;;18.30;1.00;;;;;;5487289;25;20470;-64
2024/04/10 12:15:05;;;;;;;0.80;0.20;;;18.40;1.00;;;;;;5488792;25;20513;-66
2024/04/10 12:17:35;;;;;;;0.70;0.20;;;17.50;1.00;;;;;;5492966;26;20569;-64
2024/04/10 12:20:02;;;;;;;0.40;0.20;;;17.50;1.00;;;;;;5485236;26;20579;-66
2024/04/10 12:22:31;;;;;;;0.50;0.20;;;17.50;1.00;;;;;;5486586;26;20543;-66
2024/04/10 12:24:57;;;;;;;0.50;0.23;;;17.10;1.00;;;;;;5488162;26;20802;-66
2024/04/10 12:27:29;;;;;;;0.37;0.20;;;16.00;1.00;;;;;;5485403;26;20458;-66
2024/04/10 12:29:55;;;;;;;0.37;0.20;;;16.00;1.00;;;;;;5504702;25;20452;-68
2024/04/10 12:32:25;;;;;;;1.10;0.30;;;16.20;1.00;;;;;;5486098;26;20858;-65
2024/04/10 12:34:58;;;;;;;0.90;0.30;;;16.40;1.00;;;;;;5497268;26;20468;-66
2024/04/10 12:40:12;;;;;;;0.30;0.20;;;17.30;1.00;;;;;;5493134;26;22016;-66
2024/04/10 12:42:43;;;;;;;0.87;0.30;;;17.40;1.00;;;;;;5487137;26;20465;-67
2024/04/10 12:45:12;;;;;;;0.50;0.30;;;17.20;1.00;;;;;;5488416;25;20462;-67
2024/04/10 12:47:39;;;;;;;0.40;0.20;;;16.30;1.00;;;;;;5486992;25;21073;-66
2024/04/10 12:50:09;;;;;;;0.50;0.30;;;16.20;1.00;;;;;;5495614;26;20488;-66
2024/04/10 12:52:36;;;;;;;0.83;0.33;;;16.60;1.00;;;;;;5532391;25;20554;-67
2024/04/10 12:55:05;;;;;;;1.10;0.30;;;16.80;1.00;;;;;;5493962;25;21168;-66
2024/04/10 12:57:31;;;;;;;0.60;0.20;;;17.00;1.00;;;;;;5492719;25;20478;-65
2024/04/10 13:00:02;;;;;;;0.57;0.20;;;17.20;1.00;;;;;;5502380;25;21088;-64
2024/04/10 13:02:28;;;;;;;0.50;0.30;;;17.70;1.00;;;;;;5527464;25;20461;-66
2024/04/10 13:04:57;;;;;;;0.50;0.30;;;17.60;1.00;;;;;;5495382;25;20469;-67
2024/04/10 13:07:23;;;;;;;1.17;0.30;;;17.30;1.00;;;;;;5490489;25;20466;-67
2024/04/10 13:09:53;;;;;;;0.43;0.23;;;17.40;1.00;;;;;;5492351;25;21051;-67
2024/04/10 13:12:19;;;;;;;0.80;0.30;;;16.80;1.00;;;;;;5494897;25;20476;-67